Flight Track Log - Related Links

Times and Time Zones

All times are in EDT time to prevent confusion due to time zone crossing. See the UAL5915 flight status page for this flight to view local times or setup timezone preferences in your user account.

Time Position Orientation Groundspeed Altitude Reporting Facility
EDT Latitude Longitude Course Direction KTS km/h meters Rate Location/Type
Mon 13:36:48 36.1956 -95.8658 88° East 161 298 396  Level Kansas City Center
Mon 13:37:16 36.1967 -95.8322 88° East 169 312 762 650 Climbing Kansas City Center
Mon 13:38:04 36.1894 -95.7783 99° East 198 367 1,219 604 Climbing Kansas City Center
Mon 13:39:08 36.1697 -95.6881 105° East 255 472 1,890 677 Climbing Kansas City Center
Mon 13:40:11 36.1478 -95.5844 105° East 303 562 2,652 669 Climbing Kansas City Center
Mon 13:41:11 36.1239 -95.4778 105° East 316 586 3,261 501 Climbing Kansas City Center
Mon 13:42:15 36.0914 -95.3239 105° East 369 684 3,688 483 Climbing Kansas City Center
Mon 13:43:16 36.0636 -95.1892 104° East 399 739 4,267 555 Climbing Kansas City Center
Mon 13:44:17 36.0333 -95.0519 105° East 414 766 4,816 532 Climbing Kansas City Center
Mon 13:44:42 36.0242 -95.0022 103° East 403 747 5,029 473 Climbing Memphis Center
Mon 13:45:42 36.0253 -94.8561 89° East 408 756 5,486 472 Climbing Memphis Center
Mon 13:46:42 36.0306 -94.7075 87° East 419 776 5,974 472 Climbing Memphis Center
Mon 13:47:42 36.0378 -94.5589 87° East 430 797 6,431 457 Climbing Memphis Center
Mon 13:48:42 36.0431 -94.4053 88° East 435 806 6,888 411 Climbing Memphis Center
Mon 13:49:42 36.0478 -94.2514 88° East 435 806 7,254 351 Climbing Memphis Center
Mon 13:50:42 36.0506 -94.0975 89° East 440 814 7,590 305 Climbing Memphis Center
Mon 13:51:42 36.0553 -93.9333 88° East 450 834 7,864 290 Climbing Memphis Center
Mon 13:52:42 36.0597 -93.7719 88° East 461 855 8,169 305 Climbing Memphis Center
Mon 13:53:42 36.0661 -93.6103 87° East 461 855 8,473 305 Climbing Memphis Center
Mon 13:54:42 36.0683 -93.4461 89° East 461 855 8,778 320 Climbing Memphis Center
Mon 13:55:42 36.0722 -93.2844 88° East 461 855 9,114 320 Climbing Memphis Center
Mon 13:56:42 36.0781 -93.1178 87° East 474 877 9,418 305 Climbing Memphis Center
Mon 13:57:42 36.0817 -92.9533 88° East 485 898 9,723 305 Climbing Memphis Center
Mon 13:58:42 36.0872 -92.7842 88° East 480 888 10,028 305 Climbing Memphis Center
Mon 13:59:42 36.0903 -92.6172 89° East 480 888 10,333 305 Climbing Memphis Center
Mon 14:00:42 36.0931 -92.4503 89° East 480 888 10,638 305 Climbing Memphis Center
Mon 14:01:42 36.0958 -92.2861 89° East 474 877 10,942 305 Climbing Memphis Center
Mon 14:02:42 36.1025 -92.1244 87° East 474 877 11,247 168 Climbing Memphis Center
Mon 14:03:42 36.1361 -91.9503 77° East 474 877 11,278 15 Climbing Memphis Center
Mon 14:04:42 36.1756 -91.7867 73° East 479 887 11,278  Level Memphis Center
Mon 14:05:42 36.2211 -91.6228 71° East 491 909 11,278  Level Memphis Center
Mon 14:06:42 36.2664 -91.4561 71° East 497 921 11,278  Level Memphis Center
Mon 14:07:42 36.3075 -91.2892 73° East 497 921 11,278  Level Memphis Center
Mon 14:08:42 36.3522 -91.1275 71° East 497 921 11,278  Level Memphis Center
Mon 14:09:42 36.3928 -90.9653 73° East 492 911 11,278  Level Memphis Center
Mon 14:10:42 36.4372 -90.8033 71° East 492 911 11,278  Level Memphis Center
Mon 14:11:42 36.4794 -90.6408 72° East 492 911 11,278  Level Memphis Center
Mon 14:12:42 36.5214 -90.4783 72° East 492 911 11,278  Level Memphis Center
Mon 14:13:42 36.5567 -90.3311 73° East 492 911 11,278  Level Memphis Center
Mon 14:14:42 36.5983 -90.1683 72° East 492 911 11,278  Level Memphis Center
Mon 14:15:42 36.6397 -90.0028 73° East 497 921 11,278  Level Memphis Center
Mon 14:16:42 36.6808 -89.8394 73° East 497 921 11,278  Level Memphis Center
Mon 14:17:42 36.7217 -89.6736 73° East 497 921 11,278  Level Memphis Center
Mon 14:18:42 36.7622 -89.5050 73° East 497 921 11,278  Level Memphis Center
Mon 14:19:42 36.8047 -89.3386 72° East 497 921 11,278  Level Memphis Center
Mon 14:20:42 36.8450 -89.1694 73° East 497 921 11,278  Level Memphis Center
Mon 14:21:42 36.8850 -89.0031 73° East 497 921 11,278  Level Memphis Center
Mon 14:22:42 36.9247 -88.8361 73° East 497 921 11,278  Level Memphis Center
Mon 14:23:42 36.9642 -88.6667 74° East 497 921 11,278  Level Memphis Center
Mon 14:24:42 37.0053 -88.4969 73° East 497 921 11,278  Level Memphis Center
Mon 14:25:42 37.0464 -88.3139 74° East 497 921 11,278  Level Memphis Center
Mon 14:26:42 37.0872 -88.1439 73° East 497 921 11,278  Level Memphis Center
Mon 14:27:42 37.1197 -87.9894 75° East 497 921 11,278  Level Memphis Center
Mon 14:28:42 37.1581 -87.8219 74° East 497 921 11,278  Level Memphis Center
Mon 14:31:09 37.2508 -87.3983 74° East 501 929 11,278  Level Indianapolis Center
Mon 14:32:11 37.2878 -87.2300 75° East 497 921 11,278  Level Indianapolis Center
Mon 14:33:12 37.3253 -87.0581 75° East 501 929 11,278  Level Indianapolis Center
Mon 14:34:14 37.3631 -86.8883 74° East 501 929 11,278  Level Indianapolis Center
Mon 14:35:16 37.4000 -86.7158 75° East 503 932 11,278  Level Indianapolis Center
Mon 14:36:18 37.4369 -86.5442 75° East 502 930 11,278  Level Indianapolis Center
Mon 14:37:19 37.4739 -86.3731 75° East 502 930 11,278  Level Indianapolis Center
Mon 14:38:21 37.5097 -86.2014 75° East 503 932 11,278  Level Indianapolis Center
Mon 14:39:23 37.5456 -86.0292 75° East 503 932 11,278  Level Indianapolis Center
Mon 14:40:24 37.5817 -85.8544 75° East 500 925 11,278  Level Indianapolis Center
Mon 14:41:26 37.6192 -85.6847 74° East 503 932 11,278  Level Indianapolis Center
Mon 14:42:28 37.6564 -85.4942 76° East 505 935 11,278  Level Indianapolis Center
Mon 14:43:30 37.6903 -85.3228 76° East 503 932 11,278  Level Indianapolis Center
Mon 14:44:31 37.7253 -85.1494 76° East 507 938 11,278  Level Indianapolis Center
Mon 14:45:33 37.7650 -84.9483 76° East 506 937 11,278  Level Indianapolis Center
Mon 14:46:35 37.7994 -84.7761 76° East 506 937 11,278  Level Indianapolis Center
Mon 14:47:36 37.8339 -84.6008 76° East 513 950 11,278  Level Indianapolis Center
Mon 14:48:38 37.8819 -84.4389 69° East 501 929 11,278  Level Indianapolis Center
Mon 14:49:40 37.9644 -84.2964 54° Northeast 496 919 11,278  Level Indianapolis Center
Mon 14:50:42 38.0486 -84.1553 53° Northeast 497 921 11,278  Level Indianapolis Center
Mon 14:51:43 38.1317 -84.0114 54° Northeast 502 930 11,278  Level Indianapolis Center
Mon 14:52:45 38.2306 -83.8447 53° Northeast 502 930 11,278  Level Indianapolis Center
Mon 14:53:47 38.3119 -83.7050 53° Northeast 494 914 11,278  Level Indianapolis Center
Mon 14:54:49 38.3942 -83.5656 53° Northeast 490 908 11,278  Level Indianapolis Center
Mon 14:55:50 38.4475 -83.4039 67° East 499 924 11,278  Level Indianapolis Center
Mon 14:56:52 38.4250 -83.2314 99° East 492 911 11,278  Level Indianapolis Center
Mon 14:57:54 38.3658 -83.0739 116° Southeast 492 911 11,278  Level Indianapolis Center
Mon 14:58:56 38.3419 -82.9017 100° East 497 921 11,278  Level Indianapolis Center
Mon 14:59:58 38.3403 -82.6942 91° East 501 929 11,278  Level Indianapolis Center
Mon 15:00:59 38.3386 -82.5156 91° East 502 930 11,278  Level Indianapolis Center
Mon 15:02:01 38.3375 -82.3519 90° East 501 929 11,278  Level Indianapolis Center
Mon 15:03:03 38.3350 -82.1750 91° East 502 930 11,278  Level Indianapolis Center
Mon 15:04:05 38.3344 -81.9994 90° East 499 924 11,278  Level Indianapolis Center
Mon 15:05:07 38.3314 -81.7869 91° East 503 932 11,278  Level Indianapolis Center
Mon 15:06:09 38.3275 -81.6100 92° East 505 935 11,278  Level Indianapolis Center
Mon 15:07:11 38.3247 -81.4336 91° East 502 930 11,278 -74 Level Indianapolis Center
Mon 15:08:12 38.3214 -81.2572 91° East 504 933 11,125 -208 Descending Indianapolis Center
Mon 15:09:14 38.3167 -81.0792 92° East 506 937 10,851 -310 Descending Indianapolis Center
Mon 15:10:16 38.3128 -80.8642 91° East 509 943 10,485 -310 Descending Indianapolis Center
Mon 15:11:18 38.3094 -80.6836 91° East 513 950 10,211 -206 Descending Indianapolis Center
Mon 15:12:20 38.3244 -80.5106 84° East 493 912 10,058 -86 Descending Indianapolis Center
Mon 15:13:26 38.3614 -80.3239 76° East 487 901 10,028 -261 Descending Washington Center
Mon 15:14:26 38.3933 -80.1508 77° East 487 901 9,510 -610 Descending Washington Center
Mon 15:15:26 38.4267 -79.9781 76° East 487 901 8,809 -640 Descending Washington Center
Mon 15:16:26 38.4600 -79.8050 76° East 492 911 8,230 -579 Descending Washington Center
Mon 15:17:26 38.4911 -79.6289 77° East 503 932 7,650 -457 Descending Washington Center
Mon 15:18:26 38.5192 -79.4767 77° East 498 922 7,315 -166 Descending Washington Center
Mon 15:19:27 38.5450 -79.3186 78° East 479 887 7,315 -227 Level Washington Center
Mon 15:20:27 38.5642 -79.1656 81° East 448 830 6,858 -492 Descending Washington Center
Mon 15:21:26 38.5914 -79.0183 77° East 432 800 6,340 -538 Descending Washington Center
Mon 15:22:26 38.6142 -78.8758 78° East 421 779 5,791 -594 Descending Washington Center
Mon 15:23:26 38.6428 -78.7442 74° East 403 747 5,151 -716 Descending Washington Center
Mon 15:24:26 38.6731 -78.6153 73° East 383 710 4,359 -756 Descending Washington Center
Mon 15:25:27 38.7033 -78.4914 73° East 370 686 3,627 -503 Descending Washington Center
Mon 15:26:26 38.7331 -78.3808 71° East 350 649 3,353 -277 Descending Washington Center
Mon 15:27:26 38.8047 -78.3436 22° Northeast 270 501 3,078 -335 Descending Washington Center
Mon 15:28:26 38.8583 -78.2789 43° Northeast 265 491 2,682 -457 Descending Washington Center
Mon 15:29:26 38.8958 -78.1869 62° Northeast 271 502 2,164 -472 Descending Washington Center
Mon 15:30:26 38.9311 -78.0975 63° Northeast 276 512 1,737 -393 Descending Washington Center
Mon 15:31:27 38.9475 -78.0097 76° East 269 499 1,372 -259 Descending Washington Center
Mon 15:32:26 38.9533 -77.9192 85° East 256 475 1,219 -77 Descending Washington Center
Mon 15:33:26 38.9611 -77.8394 83° East 219 406 1,219 -91 Level Washington Center
Mon 15:34:26 38.9667 -77.7756 84° East 189 349 1,036 -159 Descending Washington Center
Mon 15:36:18 38.9833 -77.6500 80° East 188 348 762 -149 Descending Potomac TRACON
Mon 15:37:18 38.9667 -77.5833 108° East 175 323 610 -183 Descending Potomac TRACON
Mon 15:38:18 38.9500 -77.5333 113° Southeast 129 238 396 -212 Descending Potomac TRACON
Mon 15:39:19 38.9500 -77.5000 90° East 117 217 183 -210 Descending Potomac TRACON
Mon 15:41:00 38.9474 -77.4599 159° South  Level Estimated
Mon 15:48:00 38.9474 -77.4599 159° South  Level Estimated
Mon 15:49:00 38.9474 -77.4599 159° South  Level Estimated
Mon 15:50:00 38.9474 -77.4599 159° South  Level Estimated
Mon 15:51:00 38.9474 -77.4599 159° South  Level Estimated

Login

Don't have an account? Register now (free) for customized features, flight alerts, and more!